Time;durP1;ratioP1;P1;durP2;ratioP2;P2;SDS_P1;SDS_P2;PMS_P1;PMS_P2;Temp;Humidity;BMP_temperature;BMP_pressure;BME280_temperature;BME280_humidity;BME280_pressure;Samples;Min_cycle;Max_cycle;Signal;HPM_P1;HPM_P2
2022/03/21 00:01:22;;;;;;;9.68;7.28;;;11.00;1.00;;;;;;5051544;28;20106;-80
2022/03/21 00:03:47;;;;;;;10.35;7.45;;;11.10;1.00;;;;;;5049977;28;20064;-79
2022/03/21 00:06:13;;;;;;;8.88;7.28;;;11.10;1.00;;;;;;5049929;28;20017;-80
2022/03/21 00:08:39;;;;;;;9.68;7.15;;;11.00;1.00;;;;;;5051877;28;20171;-79
2022/03/21 00:11:05;;;;;;;9.07;7.03;;;11.00;1.00;;;;;;5053389;28;20025;-79
2022/03/21 00:13:31;;;;;;;7.93;6.95;;;11.00;1.00;;;;;;5050796;28;20033;-79
2022/03/21 00:15:57;;;;;;;9.43;7.10;;;11.00;1.00;;;;;;5050418;28;20589;-78
2022/03/21 00:18:24;;;;;;;9.98;7.72;;;11.00;1.00;;;;;;5051252;28;20108;-79
2022/03/21 00:20:53;;;;;;;11.27;7.78;;;11.00;1.00;;;;;;5035523;28;20515;-79
2022/03/21 00:23:19;;;;;;;8.40;6.68;;;11.00;1.00;;;;;;5049286;28;20021;-78
2022/03/21 00:25:46;;;;;;;10.90;7.32;;;10.90;1.00;;;;;;5051549;28;20029;-79
2022/03/21 00:28:12;;;;;;;10.23;6.68;;;11.00;1.00;;;;;;5050272;28;20508;-79
2022/03/21 00:30:40;;;;;;;9.55;7.70;;;10.90;1.00;;;;;;5050896;28;20051;-78
2022/03/21 00:33:06;;;;;;;11.18;7.50;;;11.00;1.00;;;;;;5050962;28;20045;-79
2022/03/21 00:35:32;;;;;;;12.88;7.15;;;11.00;1.00;;;;;;5051795;28;20059;-79
2022/03/21 00:37:58;;;;;;;10.35;6.88;;;11.00;1.00;;;;;;5052136;28;20079;-78
2022/03/21 00:40:24;;;;;;;10.93;7.68;;;11.00;1.00;;;;;;5050682;28;20083;-78
2022/03/21 00:42:51;;;;;;;12.35;7.10;;;11.00;1.00;;;;;;5049335;28;20029;-79
2022/03/21 00:45:19;;;;;;;12.32;6.68;;;10.90;1.00;;;;;;5049362;28;20526;-79
2022/03/21 00:47:46;;;;;;;8.80;6.45;;;10.90;1.00;;;;;;5050149;28;20036;-78
2022/03/21 00:50:14;;;;;;;9.02;7.18;;;11.00;1.00;;;;;;5052202;28;20025;-79
2022/03/21 00:52:44;;;;;;;9.18;7.15;;;11.20;1.00;;;;;;5050240;28;20047;-79
2022/03/21 00:55:11;;;;;;;10.13;7.35;;;10.90;1.00;;;;;;5049038;28;20450;-79
2022/03/21 00:57:40;;;;;;;9.57;7.43;;;10.90;1.00;;;;;;5049915;28;20021;-79
2022/03/21 01:00:08;;;;;;;9.50;6.72;;;10.90;1.00;;;;;;5050482;28;20082;-78
2022/03/21 01:02:35;;;;;;;9.27;6.63;;;10.90;1.00;;;;;;5051176;28;20052;-79
2022/03/21 01:05:01;;;;;;;10.48;7.30;;;10.90;1.00;;;;;;5052140;28;20029;-79
2022/03/21 01:07:26;;;;;;;11.45;7.53;;;10.80;1.00;;;;;;5050166;28;20033;-78
2022/03/21 01:09:52;;;;;;;9.88;7.03;;;10.80;1.00;;;;;;5050107;28;20051;-79
2022/03/21 01:12:18;;;;;;;10.15;7.80;;;10.90;1.00;;;;;;5050158;28;20029;-77
2022/03/21 01:14:43;;;;;;;12.80;8.45;;;10.80;1.00;;;;;;5050403;28;20024;-79
2022/03/21 01:17:09;;;;;;;12.25;7.80;;;10.80;1.00;;;;;;5052253;28;20029;-79
2022/03/21 01:19:34;;;;;;;10.20;7.32;;;10.70;1.00;;;;;;5050252;28;20628;-79
2022/03/21 01:22:00;;;;;;;9.77;7.53;;;10.60;1.00;;;;;;5048751;28;20108;-79
2022/03/21 01:24:26;;;;;;;8.65;6.90;;;10.70;1.00;;;;;;5048436;28;20025;-78
2022/03/21 01:26:51;;;;;;;9.80;7.20;;;10.60;1.00;;;;;;5048308;28;20033;-79
2022/03/21 01:29:17;;;;;;;9.52;7.43;;;10.50;1.00;;;;;;5047154;28;20062;-79
2022/03/21 01:31:43;;;;;;;12.20;7.57;;;10.60;1.00;;;;;;5050004;28;20127;-79
2022/03/21 01:34:09;;;;;;;10.20;6.60;;;10.60;1.00;;;;;;5048294;28;20037;-79
2022/03/21 01:36:34;;;;;;;9.93;7.65;;;10.50;1.00;;;;;;5049897;28;20108;-79
2022/03/21 01:39:01;;;;;;;10.35;8.13;;;10.60;1.00;;;;;;5050121;28;20075;-77
2022/03/21 01:41:26;;;;;;;10.43;7.32;;;10.50;1.00;;;;;;5050556;28;20024;-79
2022/03/21 01:43:55;;;;;;;11.68;8.00;;;10.50;1.00;;;;;;5050478;28;20032;-79
2022/03/21 01:46:21;;;;;;;7.97;7.13;;;10.50;1.00;;;;;;5050159;28;20040;-78
2022/03/21 01:48:46;;;;;;;13.68;9.65;;;10.40;1.00;;;;;;5049610;28;20029;-79
2022/03/21 01:51:12;;;;;;;11.27;7.40;;;10.40;1.00;;;;;;5049544;28;20040;-79
2022/03/21 01:56:23;;;;;;;12.32;7.88;;;10.60;1.00;;;;;;5048153;28;20401;-79
2022/03/21 01:58:49;;;;;;;8.75;6.93;;;10.40;1.00;;;;;;5050093;28;20025;-79
2022/03/21 02:01:14;;;;;;;12.48;7.80;;;10.30;1.00;;;;;;5047875;28;20036;-79
2022/03/21 02:03:40;;;;;;;14.52;7.97;;;10.40;1.00;;;;;;5048349;28;20074;-79
2022/03/21 02:06:05;;;;;;;13.00;7.68;;;10.70;1.00;;;;;;5047959;28;20083;-78
2022/03/21 02:08:31;;;;;;;9.18;7.28;;;10.50;1.00;;;;;;5049959;28;20493;-79
2022/03/21 02:10:57;;;;;;;11.35;7.05;;;10.10;1.00;;;;;;5050607;28;20040;-78
2022/03/21 02:13:23;;;;;;;9.60;7.25;;;10.10;1.00;;;;;;5049235;28;20037;-79
2022/03/21 02:15:48;;;;;;;9.93;7.50;;;10.00;1.00;;;;;;5048849;28;20397;-79
2022/03/21 02:18:17;;;;;;;9.43;7.07;;;9.90;1.00;;;;;;5049227;28;20029;-79
2022/03/21 02:20:44;;;;;;;12.00;7.60;;;10.00;1.00;;;;;;5048694;28;20040;-79
2022/03/21 02:23:20;;;;;;;11.73;7.40;;;10.00;1.00;;;;;;5050799;28;20033;-79
2022/03/21 02:25:47;;;;;;;8.90;7.10;;;10.00;1.00;;;;;;5049508;28;20036;-78
2022/03/21 02:28:15;;;;;;;13.05;7.80;;;9.90;1.00;;;;;;5048988;28;20501;-79
2022/03/21 02:30:44;;;;;;;9.77;7.88;;;9.70;1.00;;;;;;5049083;28;20108;-78
2022/03/21 02:33:11;;;;;;;10.82;7.90;;;9.70;1.00;;;;;;5049020;28;20106;-79
2022/03/21 02:35:39;;;;;;;11.18;7.78;;;9.60;1.00;;;;;;5049112;28;20496;-79
2022/03/21 02:38:06;;;;;;;11.75;7.75;;;9.60;1.00;;;;;;5050742;28;20109;-78
2022/03/21 02:40:32;;;;;;;9.73;7.63;;;9.60;1.00;;;;;;5051998;28;20031;-79
2022/03/21 02:42:58;;;;;;;10.77;7.82;;;9.60;1.00;;;;;;5051770;28;20060;-79
2022/03/21 02:45:24;;;;;;;10.80;7.50;;;9.60;1.00;;;;;;5053343;28;20087;-79
2022/03/21 02:47:50;;;;;;;9.85;7.70;;;9.40;1.00;;;;;;5037435;28;20025;-79
2022/03/21 02:50:32;;;;;;;13.10;7.60;;;9.30;1.00;;;;;;5055190;28;20108;-79
2022/03/21 02:53:00;;;;;;;10.82;7.93;;;9.20;1.00;;;;;;5054038;28;20023;-80
2022/03/21 02:55:25;;;;;;;10.82;8.00;;;9.20;1.00;;;;;;5052588;28;20485;-79
2022/03/21 02:57:51;;;;;;;12.88;8.23;;;9.50;1.00;;;;;;5052602;28;20112;-78
2022/03/21 03:00:17;;;;;;;10.27;8.20;;;9.10;1.00;;;;;;5052783;28;20040;-79
2022/03/21 03:02:42;;;;;;;10.27;7.65;;;9.30;1.00;;;;;;5052979;28;20026;-79
2022/03/21 03:05:08;;;;;;;12.98;7.68;;;9.40;1.00;;;;;;5054625;28;20481;-78
2022/03/21 03:07:34;;;;;;;10.18;7.88;;;9.50;1.00;;;;;;5052329;28;20044;-79
2022/03/21 03:10:01;;;;;;;11.02;8.10;;;9.70;1.00;;;;;;5052366;28;20040;-78
2022/03/21 03:12:26;;;;;;;10.95;7.82;;;9.60;1.00;;;;;;5052497;28;20099;-79
2022/03/21 03:14:52;;;;;;;9.23;7.47;;;9.70;1.00;;;;;;5052545;28;20067;-79
2022/03/21 03:17:18;;;;;;;8.35;7.45;;;9.80;1.00;;;;;;5054558;28;20400;-79
2022/03/21 03:19:43;;;;;;;12.70;7.70;;;9.90;1.00;;;;;;5051073;28;20048;-79
2022/03/21 03:22:09;;;;;;;9.30;7.60;;;10.00;1.00;;;;;;5050645;28;20082;-79
2022/03/21 03:24:36;;;;;;;11.52;7.82;;;10.00;1.00;;;;;;5050582;28;20032;-79
2022/03/21 03:27:01;;;;;;;13.10;8.52;;;9.80;1.00;;;;;;5052312;28;20032;-79
2022/03/21 03:29:27;;;;;;;10.32;8.00;;;9.80;1.00;;;;;;5053862;28;20100;-79
2022/03/21 03:31:53;;;;;;;11.43;8.02;;;9.70;1.00;;;;;;5052449;28;20420;-79
2022/03/21 03:34:19;;;;;;;12.23;8.55;;;9.80;1.00;;;;;;5051865;28;20033;-79
2022/03/21 03:36:45;;;;;;;11.07;8.52;;;9.80;1.00;;;;;;5051572;28;20045;-80
2022/03/21 03:39:11;;;;;;;11.55;8.45;;;9.50;1.00;;;;;;5052564;28;20116;-79
2022/03/21 03:41:37;;;;;;;11.15;8.38;;;9.40;1.00;;;;;;5052102;28;20420;-79
2022/03/21 03:44:03;;;;;;;10.82;8.38;;;9.20;1.00;;;;;;5051632;28;20052;-79
2022/03/21 03:46:28;;;;;;;11.05;8.25;;;9.10;1.00;;;;;;5051967;28;20505;-79
2022/03/21 03:48:54;;;;;;;11.15;8.35;;;9.40;1.00;;;;;;5051624;28;20025;-79
2022/03/21 03:51:20;;;;;;;12.43;8.20;;;9.80;1.00;;;;;;5050292;28;20021;-79
2022/03/21 03:53:46;;;;;;;13.77;8.43;;;9.40;1.00;;;;;;5051760;28;20082;-79
2022/03/21 03:56:11;;;;;;;11.07;8.80;;;9.30;1.00;;;;;;5053647;28;20044;-79
2022/03/21 03:58:38;;;;;;;9.82;8.75;;;9.20;1.00;;;;;;5049934;28;20082;-79
2022/03/21 04:01:05;;;;;;;13.98;9.13;;;9.10;1.00;;;;;;5050469;28;20037;-77
2022/03/21 04:03:47;;;;;;;11.95;8.38;;;9.60;1.00;;;;;;5051732;28;20071;-79
2022/03/21 04:06:14;;;;;;;12.57;8.43;;;9.20;1.00;;;;;;5050990;28;20043;-79
2022/03/21 04:08:40;;;;;;;11.95;8.82;;;9.30;1.00;;;;;;5051410;28;20037;-79
2022/03/21 04:11:06;;;;;;;11.52;8.40;;;9.60;1.00;;;;;;5053468;28;20392;-79
2022/03/21 04:13:31;;;;;;;11.52;8.48;;;9.20;1.00;;;;;;5051810;28;20047;-77
2022/03/21 04:15:57;;;;;;;11.68;8.70;;;9.30;1.00;;;;;;5050929;28;20033;-79
2022/03/21 04:18:23;;;;;;;11.48;8.70;;;9.20;1.00;;;;;;5051280;28;20028;-79
2022/03/21 04:20:50;;;;;;;12.23;9.07;;;9.40;1.00;;;;;;5051355;28;20025;-79
2022/03/21 04:23:17;;;;;;;10.43;8.55;;;9.20;1.00;;;;;;5053129;28;20027;-78
2022/03/21 04:25:43;;;;;;;12.05;8.98;;;9.60;1.00;;;;;;5050859;28;20067;-76
2022/03/21 04:28:12;;;;;;;14.93;8.68;;;9.30;1.00;;;;;;5050817;28;20029;-79
2022/03/21 04:30:38;;;;;;;13.55;9.10;;;9.50;1.00;;;;;;5051017;28;20021;-79
2022/03/21 04:33:05;;;;;;;12.82;8.27;;;9.30;1.00;;;;;;5051106;28;20416;-79
2022/03/21 04:35:31;;;;;;;11.57;8.45;;;9.10;1.00;;;;;;5051545;28;20041;-79
2022/03/21 04:37:57;;;;;;;12.73;8.68;;;9.10;1.00;;;;;;5050718;28;20040;-78
2022/03/21 04:40:23;;;;;;;11.48;8.82;;;9.10;1.00;;;;;;5050481;28;20033;-79
2022/03/21 04:42:49;;;;;;;12.00;8.35;;;9.00;1.00;;;;;;5049137;28;20033;-79
2022/03/21 04:45:16;;;;;;;13.05;8.88;;;9.10;1.00;;;;;;5050412;28;20025;-79
2022/03/21 04:47:43;;;;;;;11.00;8.82;;;9.20;1.00;;;;;;5050603;28;20964;-78
2022/03/21 04:50:09;;;;;;;11.43;7.95;;;9.00;1.00;;;;;;5052490;28;20028;-79
2022/03/21 04:52:35;;;;;;;13.88;9.18;;;9.00;1.00;;;;;;5050508;28;20098;-79
2022/03/21 04:55:01;;;;;;;14.85;8.27;;;8.90;1.00;;;;;;5049096;28;20583;-79
2022/03/21 04:57:27;;;;;;;12.93;9.27;;;9.20;1.00;;;;;;5050371;28;20405;-79
2022/03/21 04:59:54;;;;;;;12.63;9.35;;;8.70;1.00;;;;;;5050813;28;20112;-79
2022/03/21 05:02:20;;;;;;;12.23;9.15;;;8.70;1.00;;;;;;5052369;28;20115;-79
2022/03/21 05:04:46;;;;;;;12.35;9.68;;;8.60;1.00;;;;;;5049941;28;20120;-79
2022/03/21 05:07:12;;;;;;;14.82;10.13;;;8.70;1.00;;;;;;5050224;28;20100;-79
2022/03/21 05:09:41;;;;;;;13.50;9.98;;;8.70;1.00;;;;;;5050291;28;20025;-79
2022/03/21 05:12:12;;;;;;;13.00;9.25;;;8.60;1.00;;;;;;5050653;28;20589;-80
2022/03/21 05:14:39;;;;;;;12.40;9.73;;;8.60;1.00;;;;;;5050366;28;20080;-79
2022/03/21 05:17:05;;;;;;;13.32;9.82;;;8.60;1.00;;;;;;5050659;28;20028;-79
2022/03/21 05:19:34;;;;;;;12.52;9.45;;;8.60;1.00;;;;;;5048567;28;20037;-79
2022/03/21 05:22:04;;;;;;;12.75;9.90;;;8.60;1.00;;;;;;5048781;28;20040;-79
2022/03/21 05:32:42;;;;;;;13.93;9.93;;;8.60;1.00;;;;;;5049484;28;20110;-79
2022/03/21 05:37:52;;;;;;;17.38;10.70;;;8.50;1.00;;;;;;5049350;28;20550;-79
2022/03/21 05:40:35;;;;;;;16.17;10.73;;;8.70;1.00;;;;;;5049596;28;20024;-79
2022/03/21 05:43:02;;;;;;;15.55;10.48;;;8.40;1.00;;;;;;5048412;28;20116;-79
2022/03/21 05:45:28;;;;;;;15.35;10.52;;;8.60;1.00;;;;;;5049586;28;20087;-79
2022/03/21 05:50:39;;;;;;;12.40;9.98;;;8.20;1.00;;;;;;5049793;28;20067;-79
2022/03/21 05:53:09;;;;;;;12.52;10.05;;;8.20;1.00;;;;;;5051839;28;20029;-79
2022/03/21 05:55:35;;;;;;;13.05;10.00;;;8.30;1.00;;;;;;5047700;28;20029;-79
2022/03/21 05:58:01;;;;;;;11.88;10.07;;;8.30;1.00;;;;;;5047727;28;20055;-79
2022/03/21 06:00:27;;;;;;;14.82;10.07;;;8.30;1.00;;;;;;5047935;28;20028;-79
2022/03/21 06:02:53;;;;;;;13.57;9.77;;;8.30;1.00;;;;;;5049616;28;20025;-79
2022/03/21 06:05:21;;;;;;;13.82;9.52;;;8.30;1.00;;;;;;5047707;28;20104;-79
2022/03/21 06:07:48;;;;;;;15.35;9.80;;;8.30;1.00;;;;;;5049532;28;20108;-79
2022/03/21 06:10:14;;;;;;;13.02;10.18;;;8.40;1.00;;;;;;5048858;28;20079;-79
2022/03/21 06:12:41;;;;;;;13.20;9.93;;;8.40;1.00;;;;;;5049714;28;20040;-79
2022/03/21 06:15:07;;;;;;;15.20;10.73;;;8.50;1.00;;;;;;5051319;28;20035;-78
2022/03/21 06:17:40;;;;;;;14.88;10.70;;;8.40;1.00;;;;;;5053685;28;20033;-79
2022/03/21 06:20:08;;;;;;;15.55;11.18;;;8.50;1.00;;;;;;5053989;28;20033;-79
2022/03/21 06:22:34;;;;;;;13.43;10.35;;;8.50;1.00;;;;;;5053011;28;20507;-80
2022/03/21 06:25:00;;;;;;;15.40;10.90;;;8.50;1.00;;;;;;5053242;28;20033;-81
2022/03/21 06:27:25;;;;;;;21.40;10.63;;;8.70;1.00;;;;;;5053263;28;20029;-80
2022/03/21 06:29:51;;;;;;;15.45;10.35;;;8.70;1.00;;;;;;5037121;28;20029;-81
2022/03/21 06:32:17;;;;;;;14.50;10.07;;;8.80;1.00;;;;;;5055208;28;20073;-82
2022/03/21 06:34:42;;;;;;;17.95;10.48;;;8.90;1.00;;;;;;5051636;28;20155;-80
2022/03/21 06:37:08;;;;;;;16.75;10.02;;;8.90;1.00;;;;;;5051737;28;20097;-81
2022/03/21 06:39:34;;;;;;;16.00;10.20;;;9.10;1.00;;;;;;5051815;28;20481;-81
2022/03/21 06:42:00;;;;;;;18.80;11.07;;;9.20;1.00;;;;;;5052956;28;20025;-80
2022/03/21 06:44:25;;;;;;;15.05;10.52;;;9.20;1.00;;;;;;5054213;28;20025;-81
2022/03/21 06:46:51;;;;;;;17.75;10.98;;;9.20;1.00;;;;;;5051727;28;20498;-81
2022/03/21 06:49:16;;;;;;;16.20;10.93;;;9.30;1.00;;;;;;5052005;28;20037;-80
2022/03/21 06:51:42;;;;;;;17.38;10.25;;;9.30;1.00;;;;;;5052443;28;20031;-81
2022/03/21 06:54:08;;;;;;;19.08;10.80;;;9.40;1.00;;;;;;5052808;28;20025;-80
2022/03/21 06:56:34;;;;;;;18.45;10.85;;;9.50;1.00;;;;;;5053172;28;20040;-80
2022/03/21 06:58:59;;;;;;;16.95;11.38;;;9.60;1.00;;;;;;5053814;28;20032;-80
2022/03/21 07:01:25;;;;;;;16.63;10.65;;;9.80;1.00;;;;;;5052798;28;20037;-81
2022/03/21 07:03:51;;;;;;;21.75;11.05;;;9.60;1.00;;;;;;5052524;28;20028;-81
2022/03/21 07:06:17;;;;;;;15.02;10.63;;;9.70;1.00;;;;;;5051652;28;20554;-81
2022/03/21 07:08:51;;;;;;;15.43;10.40;;;9.70;1.00;;;;;;5052875;28;20040;-80
2022/03/21 07:11:18;;;;;;;20.85;11.48;;;9.80;1.00;;;;;;5053504;28;20478;-81
2022/03/21 07:13:43;;;;;;;13.98;11.15;;;10.00;1.00;;;;;;5050286;28;20389;-91
2022/03/21 07:16:13;;;;;;;15.30;10.55;;;10.10;1.00;;;;;;5050343;28;20037;-81
2022/03/21 07:18:38;;;;;;;15.35;10.65;;;10.30;1.00;;;;;;5051422;28;20289;-81
2022/03/21 07:21:04;;;;;;;19.02;11.35;;;10.30;1.00;;;;;;5053344;28;20025;-88
2022/03/21 07:23:30;;;;;;;17.25;11.15;;;10.70;1.00;;;;;;5053354;28;20025;-87
2022/03/21 07:25:55;;;;;;;14.68;10.45;;;10.80;1.00;;;;;;5054741;28;20504;-92
2022/03/21 07:28:21;;;;;;;13.93;10.80;;;10.90;1.00;;;;;;5051959;28;20036;-92
2022/03/21 07:30:47;;;;;;;17.92;10.00;;;10.90;1.00;;;;;;5053157;28;20179;-93
2022/03/21 07:33:12;;;;;;;13.65;10.07;;;11.10;1.00;;;;;;5053684;28;20045;-95
2022/03/21 07:35:38;;;;;;;13.77;9.88;;;11.20;1.00;;;;;;5055308;28;20115;-94
2022/03/21 07:38:04;;;;;;;16.20;10.05;;;11.30;1.00;;;;;;5056547;28;20081;-91
2022/03/21 07:40:30;;;;;;;15.15;10.25;;;11.40;1.00;;;;;;5054742;28;20037;-94
2022/03/21 07:42:56;;;;;;;13.88;9.77;;;11.50;1.00;;;;;;5050759;28;20060;-89
2022/03/21 07:48:05;;;;;;;11.88;8.55;;;11.90;1.00;;;;;;5037616;28;20075;-83
2022/03/21 07:50:32;;;;;;;14.50;10.20;;;12.00;1.00;;;;;;5055134;28;20393;-91
2022/03/21 07:52:59;;;;;;;17.90;10.20;;;12.00;1.00;;;;;;5053688;28;20049;-87
2022/03/21 07:55:25;;;;;;;10.60;9.25;;;12.20;1.00;;;;;;5053278;28;20091;-87
2022/03/21 07:57:51;;;;;;;13.40;10.00;;;12.30;1.00;;;;;;5051081;28;20055;-89
2022/03/21 08:00:16;;;;;;;13.40;9.48;;;12.30;1.00;;;;;;5052654;28;20060;-89
2022/03/21 08:02:43;;;;;;;13.60;9.35;;;12.40;1.00;;;;;;5052591;28;20583;-83
2022/03/21 08:05:10;;;;;;;15.98;10.18;;;12.40;1.00;;;;;;5054637;28;20440;-86
2022/03/21 08:07:36;;;;;;;11.48;9.75;;;12.50;1.00;;;;;;5050930;28;20041;-85
2022/03/21 08:10:05;;;;;;;14.40;10.45;;;12.50;1.00;;;;;;5052197;28;20029;-83
2022/03/21 08:12:31;;;;;;;16.30;9.68;;;12.50;1.00;;;;;;5051554;28;20025;-84
2022/03/21 08:14:56;;;;;;;14.75;10.30;;;12.50;1.00;;;;;;5052796;28;20370;-86
2022/03/21 08:17:22;;;;;;;13.43;10.18;;;12.60;1.00;;;;;;5054147;28;20420;-86
2022/03/21 08:19:48;;;;;;;17.70;10.10;;;12.60;1.00;;;;;;5046905;28;20177;-85
2022/03/21 08:22:15;;;;;;;13.20;8.90;;;12.60;1.00;;;;;;5052192;28;20029;-84
2022/03/21 08:24:41;;;;;;;12.43;9.52;;;12.60;1.00;;;;;;5051746;28;20056;-83
2022/03/21 08:27:06;;;;;;;10.85;9.23;;;12.60;1.00;;;;;;5050661;28;20111;-83
2022/03/21 08:29:33;;;;;;;13.50;9.63;;;12.70;1.00;;;;;;5052650;28;20028;-83
2022/03/21 08:31:58;;;;;;;11.13;9.10;;;12.70;1.00;;;;;;5051342;28;20049;-83
2022/03/21 08:34:24;;;;;;;10.75;8.93;;;12.90;1.00;;;;;;5052079;28;20033;-86
2022/03/21 08:36:49;;;;;;;12.00;9.43;;;12.90;1.00;;;;;;5050699;28;20370;-82
2022/03/21 08:39:15;;;;;;;13.57;8.95;;;12.90;1.00;;;;;;5051254;28;20025;-83
2022/03/21 08:41:41;;;;;;;11.18;9.07;;;13.00;1.00;;;;;;5051359;28;20029;-84
2022/03/21 08:44:07;;;;;;;12.63;9.38;;;13.20;1.00;;;;;;5053486;28;20025;-84
2022/03/21 08:46:33;;;;;;;13.63;9.95;;;13.20;1.00;;;;;;5051298;28;20025;-85
2022/03/21 08:51:43;;;;;;;11.55;9.38;;;13.20;1.00;;;;;;5051079;28;20114;-84
2022/03/21 08:54:13;;;;;;;13.32;9.68;;;13.30;1.00;;;;;;5051464;28;20021;-85
2022/03/21 08:56:38;;;;;;;13.18;9.48;;;13.30;1.00;;;;;;5051285;28;20115;-84
2022/03/21 08:59:04;;;;;;;13.30;9.52;;;13.60;1.00;;;;;;5053122;28;20100;-83
2022/03/21 09:01:30;;;;;;;10.77;9.15;;;13.70;1.00;;;;;;5051223;28;20036;-83
2022/03/21 09:03:56;;;;;;;13.20;9.13;;;13.50;1.00;;;;;;5049341;28;20029;-83
2022/03/21 09:06:22;;;;;;;14.00;9.48;;;13.60;1.00;;;;;;5051007;28;20033;-83
2022/03/21 09:08:49;;;;;;;13.23;9.52;;;13.50;1.00;;;;;;5049924;28;20017;-84
2022/03/21 09:11:17;;;;;;;10.68;9.02;;;13.70;1.00;;;;;;5052019;28;20440;-84
2022/03/21 09:13:47;;;;;;;12.02;9.23;;;13.80;1.00;;;;;;5049392;28;20063;-83
2022/03/21 09:16:13;;;;;;;11.45;9.27;;;14.00;1.00;;;;;;5050545;28;20052;-83
2022/03/21 09:18:43;;;;;;;12.15;9.77;;;14.20;1.00;;;;;;5050854;28;20030;-83
2022/03/21 09:21:09;;;;;;;12.98;9.93;;;14.10;1.00;;;;;;5051148;28;20401;-83
2022/03/21 09:23:35;;;;;;;10.65;9.35;;;14.70;1.00;;;;;;5051043;28;20036;-83
2022/03/21 09:26:03;;;;;;;12.05;9.95;;;16.60;1.00;;;;;;5052116;28;20021;-83
2022/03/21 09:28:30;;;;;;;10.88;9.40;;;17.60;1.00;;;;;;5050535;28;20378;-84
2022/03/21 09:30:56;;;;;;;12.80;9.40;;;18.40;1.00;;;;;;5048609;28;20047;-84
2022/03/21 09:33:22;;;;;;;12.35;10.48;;;18.70;1.00;;;;;;5050572;28;20139;-84
2022/03/21 09:35:48;;;;;;;12.13;10.30;;;19.50;1.00;;;;;;5050525;28;20033;-84
2022/03/21 09:38:14;;;;;;;12.65;9.98;;;19.60;1.00;;;;;;5052189;28;20036;-84
2022/03/21 09:40:44;;;;;;;12.77;11.27;;;20.00;1.00;;;;;;5049677;28;20056;-84
2022/03/21 09:43:10;;;;;;;13.57;10.18;;;19.90;1.00;;;;;;5050427;28;20040;-84
2022/03/21 09:45:36;;;;;;;11.80;10.15;;;20.60;1.00;;;;;;5050618;28;20021;-84
2022/03/21 09:48:10;;;;;;;12.50;10.77;;;20.50;1.00;;;;;;5048975;28;20034;-84
2022/03/21 09:50:40;;;;;;;12.75;10.10;;;21.00;1.00;;;;;;5050690;28;20025;-84
2022/03/21 09:53:07;;;;;;;12.48;10.23;;;21.20;1.00;;;;;;5050178;28;20031;-84
2022/03/21 09:55:33;;;;;;;10.90;9.80;;;21.60;1.00;;;;;;5049825;28;20503;-84
2022/03/21 09:57:59;;;;;;;10.82;9.73;;;22.60;1.00;;;;;;5050479;28;20025;-84
2022/03/21 10:00:28;;;;;;;11.73;10.52;;;22.20;1.00;;;;;;5050193;28;20033;-84
2022/03/21 10:02:55;;;;;;;11.95;10.48;;;22.30;1.00;;;;;;5034904;28;20505;-84
2022/03/21 10:05:50;;;;;;;11.98;10.77;;;22.50;1.00;;;;;;5047756;28;20116;-84
2022/03/21 10:08:20;;;;;;;10.75;9.65;;;22.40;1.00;;;;;;5051293;28;20128;-84
2022/03/21 10:11:03;;;;;;;12.43;10.75;;;22.60;1.00;;;;;;5050041;28;20061;-84
2022/03/21 10:13:34;;;;;;;12.25;10.25;;;23.20;1.00;;;;;;5050094;28;20147;-85
2022/03/21 10:16:10;;;;;;;12.00;10.13;;;21.90;1.00;;;;;;5050167;28;20044;-84
2022/03/21 10:18:37;;;;;;;10.85;9.68;;;21.60;1.00;;;;;;5050045;28;20052;-84
2022/03/21 10:21:14;;;;;;;11.98;10.20;;;22.40;1.00;;;;;;5047897;28;20486;-84
2022/03/21 10:23:40;;;;;;;12.48;10.50;;;21.90;1.00;;;;;;5050022;28;20017;-85
2022/03/21 10:26:32;;;;;;;10.85;9.75;;;21.90;1.00;;;;;;5051943;28;20010;-84
2022/03/21 10:29:00;;;;;;;12.73;10.57;;;22.70;1.00;;;;;;5051101;28;20020;-84
2022/03/21 10:31:51;;;;;;;11.25;9.75;;;22.40;1.00;;;;;;5049575;28;20041;-84
2022/03/21 10:34:20;;;;;;;14.30;10.70;;;22.60;1.00;;;;;;5049453;28;20037;-85
2022/03/21 10:37:10;;;;;;;11.02;9.68;;;24.40;1.00;;;;;;5049197;28;20033;-82
2022/03/21 10:39:40;;;;;;;13.02;10.65;;;25.40;1.00;;;;;;5049590;28;20017;-82
2022/03/21 10:42:09;;;;;;;11.18;9.98;;;24.90;1.00;;;;;;5049667;28;20040;-82
2022/03/21 10:44:36;;;;;;;12.00;10.80;;;24.70;1.00;;;;;;5050650;28;20086;-82
2022/03/21 10:47:04;;;;;;;12.02;10.60;;;25.80;1.00;;;;;;5050791;28;20128;-81
2022/03/21 10:49:38;;;;;;;11.65;10.50;;;25.40;1.00;;;;;;5049708;28;20025;-87
2022/03/21 10:52:06;;;;;;;11.80;10.27;;;25.20;1.00;;;;;;5048082;28;20040;-84
2022/03/21 10:54:40;;;;;;;10.93;9.93;;;26.40;1.00;;;;;;5049057;28;20052;-85
2022/03/21 10:57:08;;;;;;;10.48;9.48;;;24.80;1.00;;;;;;5048195;28;20033;-84
2022/03/21 10:59:34;;;;;;;12.07;10.80;;;25.30;1.00;;;;;;5050902;28;20055;-84
2022/03/21 11:02:14;;;;;;;11.13;9.85;;;25.70;1.00;;;;;;5054512;28;20021;-83
2022/03/21 11:04:43;;;;;;;10.90;9.80;;;26.50;1.00;;;;;;5052286;28;20033;-85
2022/03/21 11:07:11;;;;;;;11.45;10.25;;;26.60;1.00;;;;;;5050817;28;20446;-84
2022/03/21 11:09:39;;;;;;;11.60;10.43;;;25.50;1.00;;;;;;5052118;28;20359;-84
2022/03/21 11:12:07;;;;;;;11.25;10.13;;;25.60;1.00;;;;;;5053448;28;20052;-85
2022/03/21 11:14:39;;;;;;;11.48;10.27;;;26.00;1.00;;;;;;5054099;28;20509;-84
2022/03/21 11:17:05;;;;;;;11.93;10.73;;;25.50;1.00;;;;;;5053120;28;20040;-83
2022/03/21 11:19:31;;;;;;;11.43;10.30;;;26.60;1.00;;;;;;5052650;28;20066;-82
2022/03/21 11:22:00;;;;;;;12.52;10.48;;;26.80;1.00;;;;;;5053349;28;20117;-84
2022/03/21 11:24:27;;;;;;;11.05;10.05;;;26.70;99.90;;;;;;5053405;28;20074;-86
2022/03/21 11:27:17;;;;;;;11.00;9.90;;;26.70;99.90;;;;;;5035902;28;20033;-85
2022/03/21 11:30:08;;;;;;;11.23;10.05;;;27.60;1.00;;;;;;5052346;28;20492;-85
2022/03/21 11:33:05;;;;;;;11.63;10.18;;;28.30;99.90;;;;;;5050879;28;20531;-84
2022/03/21 11:35:32;;;;;;;11.48;10.27;;;27.00;99.90;;;;;;5050812;28;20033;-84
2022/03/21 11:38:23;;;;;;;11.45;10.35;;;27.10;99.90;;;;;;5053899;28;20078;-85
2022/03/21 11:40:49;;;;;;;11.15;10.13;;;25.70;1.00;;;;;;5052602;28;20020;-83
2022/03/21 11:43:17;;;;;;;11.13;10.10;;;25.60;99.90;;;;;;5051702;28;20031;-83
2022/03/21 11:45:48;;;;;;;10.68;9.60;;;25.70;99.90;;;;;;5050911;28;20029;-83
2022/03/21 11:48:22;;;;;;;10.52;9.63;;;27.50;99.90;;;;;;5051319;28;20052;-83
2022/03/21 11:50:56;;;;;;;11.15;10.07;;;27.00;99.90;;;;;;5052686;28;20021;-83
2022/03/21 11:53:33;;;;;;;11.15;10.05;;;26.90;99.90;;;;;;5050543;28;20028;-83
2022/03/21 11:55:59;;;;;;;10.48;9.50;;;27.00;99.90;;;;;;5054046;28;20087;-83
2022/03/21 11:58:27;;;;;;;10.88;9.85;;;27.10;99.90;;;;;;5052486;28;20508;-83
2022/03/21 12:01:03;;;;;;;11.55;9.57;;;26.60;99.90;;;;;;5052286;28;20031;-83
2022/03/21 12:03:28;;;;;;;12.35;10.18;;;26.50;99.90;;;;;;5051999;28;20074;-83
2022/03/21 12:05:54;;;;;;;11.05;9.77;;;26.50;99.90;;;;;;5052256;28;20029;-84
2022/03/21 12:08:58;;;;;;;10.25;9.18;;;26.40;99.90;;;;;;5054630;28;20074;-85
2022/03/21 12:11:39;;;;;;;10.93;9.40;;;27.10;99.90;;;;;;5046297;28;20037;-86
2022/03/21 12:14:40;;;;;;;12.60;10.10;;;26.70;99.90;;;;;;5052476;28;20039;-86
2022/03/21 12:17:12;;;;;;;10.98;9.82;;;27.50;99.90;;;;;;5052020;28;20091;-82
2022/03/21 12:19:58;;;;;;;11.00;9.90;;;26.20;99.90;;;;;;5051777;28;20025;-83
2022/03/21 12:22:30;;;;;;;12.95;10.15;;;26.60;99.90;;;;;;5051699;28;20024;-84
2022/03/21 12:24:55;;;;;;;12.05;9.70;;;27.40;99.90;;;;;;5050605;28;20485;-85
2022/03/21 12:27:45;;;;;;;9.88;8.98;;;28.20;99.90;;;;;;5050605;28;20035;-85
2022/03/21 12:30:32;;;;;;;10.27;9.23;;;28.40;99.90;;;;;;5038321;28;20052;-85
2022/03/21 12:32:59;;;;;;;10.88;9.77;;;28.30;99.90;;;;;;5033319;28;20421;-85
2022/03/21 12:35:31;;;;;;;11.68;9.80;;;27.60;99.90;;;;;;5053322;28;20044;-83
2022/03/21 12:38:06;;;;;;;10.32;9.40;;;27.20;99.90;;;;;;5052450;28;20371;-83
2022/03/21 12:40:50;;;;;;;10.25;9.15;;;27.70;99.90;;;;;;5051853;28;20401;-84
2022/03/21 12:43:32;;;;;;;10.82;9.50;;;28.40;99.90;;;;;;5051810;28;20033;-83
2022/03/21 12:46:08;;;;;;;10.52;9.27;;;28.90;99.90;;;;;;5051491;28;20066;-84
2022/03/21 12:48:46;;;;;;;9.45;8.43;;;28.50;99.90;;;;;;5051204;28;20498;-84
2022/03/21 12:51:13;;;;;;;10.40;9.40;;;27.80;99.90;;;;;;5049479;28;20041;-84
2022/03/21 12:53:44;;;;;;;10.05;9.05;;;26.60;99.90;;;;;;5053363;28;20025;-84
2022/03/21 12:56:13;;;;;;;9.50;8.48;;;26.60;99.90;;;;;;5050536;28;20107;-83
2022/03/21 12:58:42;;;;;;;9.93;8.73;;;26.10;99.90;;;;;;5051030;28;20112;-83
2022/03/21 13:01:09;;;;;;;9.65;8.65;;;26.20;99.90;;;;;;5050994;28;20123;-84
2022/03/21 13:03:34;;;;;;;9.57;8.68;;;26.30;99.90;;;;;;5051096;28;20021;-84
2022/03/21 13:11:25;;;;;;;9.38;8.55;;;26.30;99.90;;;;;;5049515;28;20017;-85
2022/03/21 13:13:56;;;;;;;9.65;8.40;;;26.60;99.90;;;;;;5051469;28;20470;-87
2022/03/21 13:16:23;;;;;;;9.95;8.95;;;26.10;99.90;;;;;;5050583;28;20033;-85
2022/03/21 13:18:53;;;;;;;15.10;9.38;;;24.80;99.90;;;;;;5051480;28;20052;-86
2022/03/21 13:21:19;;;;;;;9.10;8.18;;;24.70;99.90;;;;;;5051152;28;20028;-85